Time;durP1;ratioP1;P1;durP2;ratioP2;P2;SDS_P1;SDS_P2;PMS_P1;PMS_P2;Temp;Humidity;BMP_temperature;BMP_pressure;BME280_temperature;BME280_humidity;BME280_pressure;Samples;Min_cycle;Max_cycle;Signal;HPM_P1;HPM_P2
2023/04/22 00:01:31;;;;;;;11.40;8.13;;;10.30;99.90;;;;;;6211409;23;20178;-72
2023/04/22 00:03:57;;;;;;;12.30;9.23;;;10.40;99.90;;;;;;6212772;23;20360;-71
2023/04/22 00:06:23;;;;;;;9.87;7.60;;;10.30;99.90;;;;;;6181994;23;20626;-71
2023/04/22 00:08:48;;;;;;;9.67;7.40;;;10.30;99.90;;;;;;6204974;23;20169;-72
2023/04/22 00:11:14;;;;;;;9.30;7.63;;;10.30;99.90;;;;;;6205679;23;20272;-73
2023/04/22 00:13:40;;;;;;;11.23;7.80;;;10.30;99.90;;;;;;6231034;23;20212;-71
2023/04/22 00:16:05;;;;;;;9.00;7.13;;;10.30;99.90;;;;;;6232719;23;20130;-72
2023/04/22 00:18:34;;;;;;;8.10;7.00;;;10.20;99.90;;;;;;6230370;23;20217;-73
2023/04/22 00:21:00;;;;;;;8.80;6.93;;;10.20;99.90;;;;;;6204521;23;20161;-72
2023/04/22 00:23:26;;;;;;;9.43;6.90;;;10.20;99.90;;;;;;6230252;23;20361;-74
2023/04/22 00:25:51;;;;;;;11.27;7.50;;;10.20;99.90;;;;;;6204921;23;20500;-73
2023/04/22 00:28:17;;;;;;;7.97;6.50;;;10.20;99.90;;;;;;6202489;23;20150;-73
2023/04/22 00:30:42;;;;;;;10.20;7.80;;;10.20;99.90;;;;;;6205600;23;20193;-76
2023/04/22 00:33:08;;;;;;;9.70;8.27;;;10.20;99.90;;;;;;6205525;23;20443;-72
2023/04/22 00:35:34;;;;;;;8.90;6.80;;;10.20;99.90;;;;;;6205388;23;20153;-70
2023/04/22 00:38:00;;;;;;;7.57;6.43;;;10.20;99.90;;;;;;6208514;23;20455;-70
2023/04/22 00:40:25;;;;;;;15.83;6.70;;;10.20;99.90;;;;;;6177060;23;20183;-73
2023/04/22 00:42:51;;;;;;;6.93;6.10;;;10.10;99.90;;;;;;6178649;23;20169;-73
2023/04/22 00:45:18;;;;;;;7.80;6.03;;;10.10;99.90;;;;;;6229699;23;20142;-71
2023/04/22 00:47:45;;;;;;;6.73;6.03;;;10.00;99.90;;;;;;6205144;23;20415;-73
2023/04/22 00:50:11;;;;;;;7.97;7.17;;;10.00;99.90;;;;;;6203996;23;20451;-71
2023/04/22 00:52:36;;;;;;;8.10;6.80;;;10.00;99.90;;;;;;6203853;23;20397;-72
2023/04/22 00:55:02;;;;;;;8.10;6.50;;;10.00;99.90;;;;;;6201991;23;20210;-73
2023/04/22 00:57:30;;;;;;;7.20;5.67;;;9.90;99.90;;;;;;6202014;23;20152;-73
2023/04/22 00:59:56;;;;;;;7.30;5.87;;;9.90;99.90;;;;;;6227831;23;20393;-74
2023/04/22 01:02:22;;;;;;;10.30;7.77;;;9.90;99.90;;;;;;6177305;23;20404;-75
2023/04/22 01:04:48;;;;;;;7.50;6.50;;;10.00;99.90;;;;;;6207979;23;20392;-75
2023/04/22 01:07:14;;;;;;;8.37;7.47;;;10.00;99.90;;;;;;6185361;23;20373;-70
2023/04/22 01:09:40;;;;;;;8.53;7.63;;;10.00;99.90;;;;;;6226826;23;20408;-73
2023/04/22 01:12:06;;;;;;;7.13;6.37;;;10.00;99.90;;;;;;6201786;23;20194;-71
2023/04/22 01:14:33;;;;;;;8.00;6.37;;;10.00;99.90;;;;;;6177197;23;20461;-72
2023/04/22 01:16:59;;;;;;;10.27;7.20;;;10.00;99.90;;;;;;6232429;23;20374;-73
2023/04/22 01:19:25;;;;;;;9.53;7.03;;;10.00;99.90;;;;;;6228739;23;20820;-69
2023/04/22 01:21:53;;;;;;;9.03;7.97;;;10.00;99.90;;;;;;6176357;23;20723;-71
2023/04/22 01:24:18;;;;;;;9.60;7.47;;;10.00;99.90;;;;;;6226831;23;20362;-72
2023/04/22 01:26:45;;;;;;;9.27;7.17;;;10.10;99.90;;;;;;6179146;23;20400;-71
2023/04/22 01:29:11;;;;;;;10.53;7.40;;;10.00;99.90;;;;;;6235276;23;20169;-72
2023/04/22 01:31:37;;;;;;;8.37;6.60;;;10.10;99.90;;;;;;6199924;23;20409;-71
2023/04/22 01:34:04;;;;;;;7.17;5.53;;;10.10;99.90;;;;;;6225232;23;20353;-72
2023/04/22 01:36:31;;;;;;;6.13;5.23;;;10.10;99.90;;;;;;6199310;23;20369;-73
2023/04/22 01:38:57;;;;;;;6.43;5.83;;;10.10;99.90;;;;;;6199590;23;20541;-71
2023/04/22 01:41:25;;;;;;;9.20;7.57;;;10.10;99.90;;;;;;6225242;23;20388;-70
2023/04/22 01:43:57;;;;;;;9.67;6.20;;;10.10;99.90;;;;;;6199762;23;20404;-72
2023/04/22 01:46:23;;;;;;;6.80;5.20;;;10.10;99.90;;;;;;6224867;23;20168;-72
2023/04/22 01:48:52;;;;;;;6.37;5.50;;;10.00;99.90;;;;;;6198512;23;20691;-71
2023/04/22 01:51:20;;;;;;;6.97;5.40;;;10.10;99.90;;;;;;6198679;23;20558;-72
2023/04/22 01:53:50;;;;;;;5.90;5.30;;;10.10;99.90;;;;;;6197849;23;20345;-71
2023/04/22 01:56:15;;;;;;;5.57;5.03;;;10.10;99.90;;;;;;6198211;23;20153;-72
2023/04/22 01:58:42;;;;;;;5.80;4.67;;;10.10;99.90;;;;;;6173212;23;20365;-70
2023/04/22 02:01:11;;;;;;;6.33;5.37;;;10.10;99.90;;;;;;6198016;23;20686;-72
2023/04/22 02:03:37;;;;;;;6.87;5.27;;;10.10;99.90;;;;;;6193908;23;20384;-71
2023/04/22 02:06:03;;;;;;;7.57;6.03;;;10.20;99.90;;;;;;6218480;23;20648;-71
2023/04/22 02:08:29;;;;;;;5.53;4.97;;;10.20;99.90;;;;;;6192195;23;20142;-70
2023/04/22 02:10:55;;;;;;;4.37;3.97;;;10.20;99.90;;;;;;6217498;23;20368;-72
2023/04/22 02:13:21;;;;;;;7.17;5.20;;;10.20;99.90;;;;;;6218666;23;20463;-70
2023/04/22 02:15:47;;;;;;;7.60;5.43;;;10.20;99.90;;;;;;6191677;23;20142;-72
2023/04/22 02:18:16;;;;;;;4.60;3.73;;;10.30;99.90;;;;;;6217993;23;20354;-71
2023/04/22 02:20:43;;;;;;;5.27;4.77;;;10.30;99.90;;;;;;6217646;23;20693;-71
2023/04/22 02:23:08;;;;;;;5.87;4.50;;;10.30;99.90;;;;;;6219584;23;20602;-70
2023/04/22 02:25:34;;;;;;;5.10;3.97;;;10.30;99.90;;;;;;6193826;23;20380;-69
2023/04/22 02:28:00;;;;;;;5.93;3.80;;;10.20;99.90;;;;;;6218135;23;20145;-72
2023/04/22 02:30:26;;;;;;;6.17;4.57;;;10.20;99.90;;;;;;6218104;23;20397;-71
2023/04/22 02:32:52;;;;;;;4.20;3.63;;;10.20;99.90;;;;;;6218161;23;20161;-70
2023/04/22 02:35:17;;;;;;;4.33;3.77;;;10.20;99.90;;;;;;6218422;23;20149;-70
2023/04/22 02:37:43;;;;;;;4.57;3.20;;;10.20;99.90;;;;;;6191536;23;20157;-70
2023/04/22 02:40:09;;;;;;;4.80;4.13;;;10.20;99.90;;;;;;6190774;23;20174;-71
2023/04/22 02:42:35;;;;;;;5.00;3.93;;;10.20;99.90;;;;;;6191843;23;20158;-72
2023/04/22 02:45:01;;;;;;;5.07;4.23;;;10.20;99.90;;;;;;6191645;23;20702;-72
2023/04/22 02:47:26;;;;;;;4.73;3.93;;;10.20;99.90;;;;;;6191792;23;20384;-71
2023/04/22 02:49:52;;;;;;;4.17;3.77;;;10.30;99.90;;;;;;6217805;23;20173;-71
2023/04/22 02:52:17;;;;;;;4.87;4.10;;;10.30;99.90;;;;;;6190950;23;20603;-70
2023/04/22 02:54:43;;;;;;;4.67;4.10;;;10.40;99.90;;;;;;6195347;23;20142;-71
2023/04/22 02:57:09;;;;;;;6.53;4.13;;;10.40;99.90;;;;;;6223582;23;20138;-70
2023/04/22 02:59:35;;;;;;;6.33;4.00;;;10.40;99.90;;;;;;6217360;23;20154;-71
2023/04/22 03:02:01;;;;;;;4.60;3.67;;;10.50;99.90;;;;;;6167536;23;20150;-71
2023/04/22 03:04:39;;;;;;;4.83;4.07;;;10.50;99.90;;;;;;6191238;23;20377;-71
2023/04/22 03:07:05;;;;;;;6.27;3.70;;;10.50;99.90;;;;;;6217982;23;20431;-73
2023/04/22 03:09:31;;;;;;;5.97;4.13;;;10.50;99.90;;;;;;6191008;23;20680;-70
2023/04/22 03:11:57;;;;;;;5.70;4.00;;;10.60;99.90;;;;;;6191323;23;20432;-70
2023/04/22 03:14:22;;;;;;;4.53;3.60;;;10.60;99.90;;;;;;6191195;23;20181;-70
2023/04/22 03:16:49;;;;;;;5.93;4.23;;;10.60;99.90;;;;;;6191740;23;20149;-71
2023/04/22 03:19:15;;;;;;;4.70;3.63;;;10.60;99.90;;;;;;6191890;23;20475;-70
2023/04/22 03:21:40;;;;;;;3.80;3.40;;;10.60;99.90;;;;;;6221056;23;20571;-70
2023/04/22 03:24:06;;;;;;;4.57;3.63;;;10.60;99.90;;;;;;6219456;23;20361;-69
2023/04/22 03:26:33;;;;;;;4.10;3.70;;;10.60;99.90;;;;;;6191322;23;20387;-72
2023/04/22 03:29:00;;;;;;;4.30;3.90;;;10.60;99.90;;;;;;6190539;23;20408;-71
2023/04/22 03:31:26;;;;;;;4.60;3.90;;;10.60;99.90;;;;;;6195441;23;20383;-73
2023/04/22 03:33:52;;;;;;;5.20;4.17;;;10.60;99.90;;;;;;6222983;23;20357;-71
2023/04/22 03:36:26;;;;;;;5.67;4.13;;;10.60;99.90;;;;;;6225490;23;20131;-71
2023/04/22 03:38:51;;;;;;;5.40;4.37;;;10.70;99.90;;;;;;6194257;23;20470;-70
2023/04/22 03:41:18;;;;;;;4.40;3.90;;;10.70;99.90;;;;;;6194582;23;20494;-71
2023/04/22 03:43:46;;;;;;;4.73;3.53;;;10.70;99.90;;;;;;6193965;23;20599;-71
2023/04/22 03:46:11;;;;;;;4.30;3.70;;;10.70;99.90;;;;;;6193386;23;20456;-72
2023/04/22 03:48:40;;;;;;;4.10;3.57;;;10.70;99.90;;;;;;6218044;23;20507;-71
2023/04/22 03:51:21;;;;;;;4.60;3.60;;;10.80;99.90;;;;;;6191960;23;20381;-69
2023/04/22 03:53:47;;;;;;;3.83;3.40;;;10.80;99.90;;;;;;6191572;23;20376;-69
2023/04/22 03:56:17;;;;;;;5.80;3.80;;;10.80;99.90;;;;;;6191427;23;20152;-69
2023/04/22 03:58:45;;;;;;;5.20;3.57;;;10.90;99.90;;;;;;6191917;23;20782;-70
2023/04/22 04:01:10;;;;;;;4.57;4.10;;;11.00;99.90;;;;;;6221433;23;20361;-71
2023/04/22 04:03:37;;;;;;;5.47;3.20;;;11.00;99.90;;;;;;6198853;23;20160;-72
2023/04/22 04:06:03;;;;;;;4.03;3.50;;;10.90;99.90;;;;;;6200579;23;20361;-71
2023/04/22 04:08:29;;;;;;;4.77;3.30;;;10.90;99.90;;;;;;6200527;23;20840;-70
2023/04/22 04:10:55;;;;;;;4.43;3.50;;;10.90;99.90;;;;;;6198143;23;20229;-70
2023/04/22 04:13:22;;;;;;;6.80;4.20;;;10.80;99.90;;;;;;6190669;23;20432;-70
2023/04/22 04:16:04;;;;;;;4.70;3.57;;;10.80;99.90;;;;;;6191269;23;20647;-70
2023/04/22 04:18:31;;;;;;;4.37;3.73;;;10.80;99.90;;;;;;6191090;23;20373;-72
2023/04/22 04:20:57;;;;;;;5.10;3.80;;;10.90;99.90;;;;;;6190490;23;20380;-71
2023/04/22 04:23:25;;;;;;;3.83;3.10;;;10.90;99.90;;;;;;6192362;23;20383;-71
2023/04/22 04:25:51;;;;;;;4.63;3.90;;;10.90;99.90;;;;;;6191913;23;20365;-71
2023/04/22 04:28:18;;;;;;;5.90;3.53;;;10.90;99.90;;;;;;6191304;23;20855;-69
2023/04/22 04:30:44;;;;;;;4.97;3.50;;;10.90;99.90;;;;;;6191270;23;20174;-71
2023/04/22 04:33:10;;;;;;;3.80;3.27;;;10.80;99.90;;;;;;6217359;23;20463;-71
2023/04/22 04:35:38;;;;;;;4.10;2.73;;;10.80;99.90;;;;;;6191583;23;20152;-70
2023/04/22 04:38:06;;;;;;;3.90;3.17;;;10.80;99.90;;;;;;6191770;23;20366;-71
2023/04/22 04:40:33;;;;;;;3.67;3.30;;;10.80;99.90;;;;;;6191404;23;20482;-70
2023/04/22 04:43:07;;;;;;;4.20;3.80;;;10.80;99.90;;;;;;6192458;23;20396;-72
2023/04/22 04:45:38;;;;;;;4.03;3.10;;;10.80;99.90;;;;;;6193628;23;20392;-72
2023/04/22 04:48:06;;;;;;;6.27;4.07;;;10.80;99.90;;;;;;6219881;23;20368;-71
2023/04/22 04:50:35;;;;;;;4.67;3.50;;;10.70;99.90;;;;;;6192452;23;20396;-69
2023/04/22 04:53:01;;;;;;;4.63;3.80;;;10.80;99.90;;;;;;6192863;23;20451;-70
2023/04/22 04:55:34;;;;;;;4.60;3.37;;;10.80;99.90;;;;;;6193136;23;20396;-70
2023/04/22 04:58:04;;;;;;;4.03;3.63;;;10.80;99.90;;;;;;6192504;23;20385;-73
2023/04/22 05:00:29;;;;;;;4.30;3.53;;;10.80;99.90;;;;;;6192178;23;20871;-70
2023/04/22 05:02:55;;;;;;;5.03;3.47;;;10.80;99.90;;;;;;6167991;23;20347;-70
2023/04/22 05:05:21;;;;;;;3.90;3.10;;;10.80;99.90;;;;;;6192817;23;20382;-71
2023/04/22 05:07:47;;;;;;;4.83;3.77;;;10.80;99.90;;;;;;6193467;23;20516;-70
2023/04/22 05:10:14;;;;;;;3.43;3.13;;;10.80;99.90;;;;;;6192734;23;20174;-70
2023/04/22 05:12:40;;;;;;;3.90;3.47;;;10.90;99.90;;;;;;6219149;23;20550;-69
2023/04/22 05:15:08;;;;;;;4.30;2.80;;;10.90;99.90;;;;;;6193022;23;20150;-71
2023/04/22 05:17:33;;;;;;;3.73;3.10;;;10.90;99.90;;;;;;6192440;23;20488;-70
2023/04/22 05:19:59;;;;;;;4.37;3.17;;;10.90;99.90;;;;;;6192566;23;20389;-70
2023/04/22 05:22:25;;;;;;;3.33;3.03;;;11.00;99.90;;;;;;6193102;23;20146;-69
2023/04/22 05:24:50;;;;;;;4.23;3.73;;;11.00;99.90;;;;;;6193133;23;20150;-72
2023/04/22 05:27:17;;;;;;;4.10;3.13;;;11.00;99.90;;;;;;6191891;23;20153;-72
2023/04/22 05:29:42;;;;;;;3.57;3.10;;;11.10;99.90;;;;;;6194547;23;20408;-70
2023/04/22 05:32:10;;;;;;;3.90;3.17;;;11.20;99.90;;;;;;6196815;23;20443;-71
2023/04/22 05:34:36;;;;;;;4.20;3.10;;;11.20;99.90;;;;;;6226488;23;20381;-70
2023/04/22 05:37:03;;;;;;;4.00;2.80;;;11.30;99.90;;;;;;6199179;23;20221;-69
2023/04/22 05:39:29;;;;;;;3.80;3.23;;;11.40;99.90;;;;;;6197050;23;20401;-70
2023/04/22 05:41:57;;;;;;;3.70;3.30;;;11.50;99.90;;;;;;6197539;23;20485;-73
2023/04/22 05:44:23;;;;;;;4.83;3.60;;;11.70;99.90;;;;;;6197491;23;20802;-70
2023/04/22 05:46:49;;;;;;;4.13;3.20;;;11.80;99.90;;;;;;6197696;23;20149;-72
2023/04/22 05:49:17;;;;;;;4.20;3.50;;;11.90;99.90;;;;;;6199914;23;20196;-72
2023/04/22 05:52:10;;;;;;;3.20;2.77;;;12.00;99.90;;;;;;6204465;23;20475;-72
2023/04/22 05:54:48;;;;;;;3.00;2.67;;;12.10;99.90;;;;;;6179267;23;20376;-70
2023/04/22 05:57:14;;;;;;;5.77;3.47;;;12.10;99.90;;;;;;6207476;23;20379;-70
2023/04/22 05:59:39;;;;;;;3.23;2.93;;;12.20;99.90;;;;;;6230821;23;20177;-70
2023/04/22 06:02:05;;;;;;;4.60;3.77;;;12.20;99.90;;;;;;6201691;23;20577;-71
2023/04/22 06:04:31;;;;;;;4.23;3.27;;;12.20;99.90;;;;;;6203110;23;20150;-71
2023/04/22 06:06:58;;;;;;;3.20;2.90;;;12.20;99.90;;;;;;6179286;23;20154;-71
2023/04/22 06:09:24;;;;;;;7.60;3.17;;;12.30;99.90;;;;;;6205115;23;20409;-71
2023/04/22 06:11:50;;;;;;;4.83;3.47;;;12.30;99.90;;;;;;6204878;23;20447;-73
2023/04/22 06:14:16;;;;;;;2.50;2.30;;;12.40;99.90;;;;;;6205339;23;20376;-71
2023/04/22 06:16:43;;;;;;;3.83;3.47;;;12.50;99.90;;;;;;6203421;23;20142;-72
2023/04/22 06:19:09;;;;;;;3.20;2.90;;;12.60;99.90;;;;;;6205484;23;20430;-70
2023/04/22 06:21:37;;;;;;;3.60;3.30;;;12.80;99.90;;;;;;6231184;23;20165;-70
2023/04/22 06:24:04;;;;;;;3.80;3.23;;;13.00;99.90;;;;;;6179437;23;20141;-71
2023/04/22 06:26:30;;;;;;;3.17;2.87;;;13.10;99.90;;;;;;6177088;23;20369;-70
2023/04/22 06:28:56;;;;;;;5.33;3.10;;;13.30;99.90;;;;;;6199141;23;20516;-72
2023/04/22 06:31:22;;;;;;;3.80;3.43;;;13.30;99.90;;;;;;6198573;23;20377;-74
2023/04/22 06:33:48;;;;;;;4.80;3.40;;;13.40;99.90;;;;;;6199697;23;20378;-73
2023/04/22 06:36:14;;;;;;;3.57;2.83;;;13.40;99.90;;;;;;6198938;23;20145;-71
2023/04/22 06:38:41;;;;;;;4.37;2.80;;;13.60;99.90;;;;;;6172548;23;20149;-71
2023/04/22 06:41:25;;;;;;;3.23;2.60;;;13.80;99.90;;;;;;6224870;23;20398;-72
2023/04/22 06:43:54;;;;;;;3.60;3.20;;;14.00;99.80;;;;;;6199655;23;20698;-70
2023/04/22 06:46:38;;;;;;;5.83;2.97;;;14.10;98.70;;;;;;6202378;23;20360;-70
2023/04/22 06:49:09;;;;;;;3.03;2.53;;;14.20;97.90;;;;;;6232089;23;20424;-72
2023/04/22 06:52:04;;;;;;;3.63;2.57;;;14.20;97.20;;;;;;6201193;23;20416;-71
2023/04/22 06:54:30;;;;;;;4.40;3.30;;;14.40;97.50;;;;;;6176549;23;20404;-72
2023/04/22 06:56:56;;;;;;;3.67;3.30;;;14.50;95.60;;;;;;6198326;23;20361;-73
2023/04/22 06:59:22;;;;;;;3.63;3.33;;;14.50;94.00;;;;;;6174007;23;20405;-72
2023/04/22 07:01:48;;;;;;;2.77;2.27;;;14.60;93.80;;;;;;6224522;23;20368;-70
2023/04/22 07:04:14;;;;;;;7.33;2.70;;;14.60;94.00;;;;;;6225565;23;20141;-70
2023/04/22 07:06:40;;;;;;;4.67;3.10;;;14.60;93.60;;;;;;6198680;23;20388;-70
2023/04/22 07:09:05;;;;;;;3.17;2.73;;;14.60;94.30;;;;;;6198518;23;20177;-71
2023/04/22 07:11:31;;;;;;;4.67;4.17;;;14.70;93.60;;;;;;6193464;23;20190;-72
2023/04/22 07:14:01;;;;;;;3.70;3.10;;;14.70;92.10;;;;;;6171127;23;20566;-73
2023/04/22 07:16:27;;;;;;;4.90;3.27;;;14.80;92.50;;;;;;6197028;23;20360;-73
2023/04/22 07:18:53;;;;;;;3.07;2.70;;;14.90;92.10;;;;;;6194816;23;20182;-74
2023/04/22 07:21:19;;;;;;;5.37;3.53;;;14.90;92.10;;;;;;6195397;23;20149;-72
2023/04/22 07:23:44;;;;;;;3.00;2.50;;;15.00;91.10;;;;;;6196103;23;20147;-72
2023/04/22 07:26:10;;;;;;;3.20;2.90;;;15.00;90.60;;;;;;6194950;23;20178;-71
2023/04/22 07:28:36;;;;;;;3.43;3.13;;;15.00;90.90;;;;;;6168639;23;20139;-71
2023/04/22 07:31:02;;;;;;;3.50;3.17;;;15.00;90.80;;;;;;6193918;23;20226;-72
2023/04/22 07:33:27;;;;;;;2.97;2.20;;;15.00;90.90;;;;;;6196077;23;20216;-71
2023/04/22 07:35:53;;;;;;;3.10;2.67;;;14.90;92.10;;;;;;6195844;23;20370;-74
2023/04/22 07:38:19;;;;;;;4.50;2.40;;;14.90;92.30;;;;;;6170980;23;20135;-70
2023/04/22 07:40:46;;;;;;;2.20;1.83;;;15.00;92.40;;;;;;6198711;23;20162;-71
2023/04/22 07:43:11;;;;;;;3.27;2.83;;;15.10;92.70;;;;;;6197152;23;20151;-71
2023/04/22 07:45:37;;;;;;;5.17;2.83;;;15.20;91.90;;;;;;6181149;23;20408;-76
2023/04/22 07:48:03;;;;;;;3.50;3.00;;;15.30;91.70;;;;;;6200911;23;20218;-75
2023/04/22 07:50:29;;;;;;;4.00;2.60;;;15.50;89.50;;;;;;6174601;23;20162;-71
2023/04/22 07:52:55;;;;;;;4.43;2.30;;;15.60;88.40;;;;;;6195409;23;20484;-73
2023/04/22 07:55:21;;;;;;;5.20;2.53;;;15.70;87.00;;;;;;6200325;23;20519;-74
2023/04/22 07:57:46;;;;;;;2.60;2.40;;;15.90;81.10;;;;;;6196112;23;20386;-71
2023/04/22 08:00:13;;;;;;;2.60;2.33;;;16.10;79.40;;;;;;6197040;23;20163;-72
2023/04/22 08:02:39;;;;;;;3.10;2.67;;;16.20;78.00;;;;;;6169589;23;20154;-71
2023/04/22 08:05:05;;;;;;;3.90;2.60;;;16.40;75.50;;;;;;6197741;23;20372;-71
2023/04/22 08:07:30;;;;;;;5.63;2.97;;;16.50;75.30;;;;;;6193598;23;20149;-70
2023/04/22 08:09:56;;;;;;;3.60;2.07;;;16.70;73.20;;;;;;6194745;23;20399;-72
2023/04/22 08:12:22;;;;;;;4.97;2.83;;;16.70;71.60;;;;;;6189449;23;20257;-75
2023/04/22 08:14:48;;;;;;;3.30;2.47;;;16.80;70.70;;;;;;6140466;23;20152;-72
2023/04/22 08:17:13;;;;;;;3.57;3.17;;;16.90;70.50;;;;;;6165973;23;20348;-76
2023/04/22 08:19:39;;;;;;;2.80;2.37;;;17.00;69.10;;;;;;6166190;23;20164;-72
2023/04/22 08:22:05;;;;;;;3.60;3.03;;;17.10;68.10;;;;;;6165910;23;20139;-73
2023/04/22 08:24:31;;;;;;;3.03;2.73;;;17.20;67.50;;;;;;6165918;23;20152;-72
2023/04/22 08:26:57;;;;;;;2.93;2.63;;;17.30;65.40;;;;;;6167206;23;20370;-73
2023/04/22 08:29:23;;;;;;;3.03;2.67;;;17.50;65.00;;;;;;6168593;23;20168;-72
2023/04/22 08:31:48;;;;;;;3.80;2.47;;;17.70;63.10;;;;;;6168936;23;20429;-72
2023/04/22 08:34:14;;;;;;;3.80;2.20;;;17.80;62.70;;;;;;6169754;23;20375;-74
2023/04/22 08:36:40;;;;;;;4.77;3.17;;;17.80;61.70;;;;;;6172653;23;20202;-77
2023/04/22 08:39:06;;;;;;;5.70;2.90;;;17.80;60.70;;;;;;6146373;23;20260;-73
2023/04/22 08:41:34;;;;;;;2.80;2.40;;;17.90;61.50;;;;;;6168946;23;20376;-73
2023/04/22 08:44:00;;;;;;;5.80;2.83;;;18.00;61.40;;;;;;6167538;23;20138;-74
2023/04/22 08:46:27;;;;;;;4.17;2.70;;;18.00;61.20;;;;;;6166612;23;20398;-73
2023/04/22 08:48:53;;;;;;;4.00;2.40;;;18.20;61.00;;;;;;6168101;23;20504;-73
2023/04/22 08:51:19;;;;;;;2.70;2.50;;;18.30;60.50;;;;;;6166856;23;20415;-72
2023/04/22 08:53:45;;;;;;;3.80;2.47;;;18.50;59.40;;;;;;6167063;23;20441;-73
2023/04/22 08:56:15;;;;;;;3.03;2.53;;;18.60;58.90;;;;;;6167899;23;20134;-72
2023/04/22 08:58:41;;;;;;;3.83;2.17;;;18.70;58.30;;;;;;6170476;23;20450;-70
2023/04/22 09:01:07;;;;;;;3.10;2.30;;;18.80;57.90;;;;;;6178285;23;20414;-73
2023/04/22 09:03:35;;;;;;;2.93;1.90;;;18.90;57.70;;;;;;6153682;23;20376;-72
2023/04/22 09:06:03;;;;;;;2.60;1.93;;;19.10;57.00;;;;;;6177732;23;20382;-73
2023/04/22 09:08:30;;;;;;;2.53;2.20;;;19.10;56.80;;;;;;6178413;23;20358;-73
2023/04/22 09:10:57;;;;;;;4.40;2.00;;;19.20;55.70;;;;;;6179104;23;20374;-74
2023/04/22 09:13:24;;;;;;;2.50;1.90;;;19.30;56.10;;;;;;6237641;23;20447;-73
2023/04/22 09:15:50;;;;;;;2.83;2.13;;;19.30;56.10;;;;;;6202488;23;20616;-73
2023/04/22 09:18:17;;;;;;;2.40;2.17;;;19.40;55.70;;;;;;6200679;23;20439;-71
2023/04/22 09:20:45;;;;;;;3.30;2.10;;;19.40;55.50;;;;;;6176245;23;20215;-74
2023/04/22 09:23:11;;;;;;;2.90;2.60;;;19.50;55.30;;;;;;6229222;23;20365;-71
2023/04/22 09:25:37;;;;;;;4.80;2.10;;;19.50;54.40;;;;;;6229447;23;20372;-74
2023/04/22 09:28:03;;;;;;;2.47;1.93;;;19.70;53.80;;;;;;6205643;23;20391;-73
2023/04/22 09:30:30;;;;;;;3.60;1.73;;;19.80;52.80;;;;;;6184235;23;20181;-72
2023/04/22 09:33:04;;;;;;;2.80;1.90;;;19.90;51.60;;;;;;6204008;23;20173;-76
2023/04/22 09:35:32;;;;;;;4.90;1.90;;;20.00;51.60;;;;;;6205424;23;20365;-74
2023/04/22 09:38:01;;;;;;;3.10;2.27;;;20.00;50.80;;;;;;6182801;23;20500;-73
2023/04/22 09:40:27;;;;;;;6.90;2.50;;;20.00;50.70;;;;;;6235204;23;20385;-76
2023/04/22 09:42:55;;;;;;;5.33;2.60;;;20.00;50.40;;;;;;6207787;23;20436;-74
2023/04/22 09:45:34;;;;;;;3.10;2.07;;;19.90;50.60;;;;;;6185096;23;20381;-74
2023/04/22 09:48:19;;;;;;;2.43;2.23;;;19.80;50.90;;;;;;6231631;23;20365;-75
2023/04/22 09:50:47;;;;;;;3.40;2.10;;;19.70;50.00;;;;;;6203386;23;20396;-71
2023/04/22 09:53:20;;;;;;;3.47;2.63;;;19.60;50.20;;;;;;6179283;23;20423;-73
2023/04/22 09:55:49;;;;;;;3.63;2.30;;;19.60;50.70;;;;;;6229050;23;20365;-74
2023/04/22 09:58:17;;;;;;;3.37;2.10;;;19.70;50.70;;;;;;6202474;23;20349;-72
2023/04/22 10:00:52;;;;;;;3.37;2.30;;;19.90;50.80;;;;;;6177136;23;20392;-74
2023/04/22 10:03:18;;;;;;;4.20;2.33;;;20.20;50.40;;;;;;6202549;23;20369;-74
2023/04/22 10:05:45;;;;;;;6.97;3.80;;;20.40;49.80;;;;;;6206759;23;20395;-75
2023/04/22 10:08:11;;;;;;;4.50;2.83;;;20.50;49.40;;;;;;6229576;23;20431;-75
2023/04/22 10:10:38;;;;;;;2.40;1.83;;;20.70;49.40;;;;;;6178885;23;20738;-72
2023/04/22 10:13:05;;;;;;;3.00;1.57;;;20.60;49.60;;;;;;6178751;23;20457;-74
2023/04/22 10:15:40;;;;;;;4.10;1.93;;;20.60;49.90;;;;;;6203850;23;20369;-76
2023/04/22 10:18:08;;;;;;;3.60;2.40;;;20.60;49.30;;;;;;6204083;23;20377;-74
2023/04/22 10:20:38;;;;;;;3.00;2.03;;;20.60;49.40;;;;;;6180718;23;20389;-74
2023/04/22 10:23:10;;;;;;;5.20;2.20;;;20.60;49.20;;;;;;6179345;23;20369;-75
2023/04/22 10:25:39;;;;;;;3.20;1.97;;;20.80;48.50;;;;;;6230021;23;20397;-75
2023/04/22 10:28:06;;;;;;;2.93;2.43;;;21.10;48.20;;;;;;6203641;23;20412;-73
2023/04/22 10:30:35;;;;;;;5.33;2.77;;;21.50;47.80;;;;;;6201902;23;20432;-76
2023/04/22 10:33:20;;;;;;;6.30;2.23;;;21.90;46.90;;;;;;6202749;23;20444;-74
2023/04/22 10:36:09;;;;;;;3.10;2.60;;;22.10;46.70;;;;;;6178991;23;20397;-75
2023/04/22 10:38:40;;;;;;;5.87;3.10;;;22.40;46.50;;;;;;6230165;23;20365;-75
2023/04/22 10:41:06;;;;;;;6.60;4.10;;;22.60;45.80;;;;;;6202234;23;20813;-75
2023/04/22 10:43:41;;;;;;;5.07;3.50;;;22.90;44.90;;;;;;6208296;23;20389;-74
2023/04/22 10:46:35;;;;;;;2.43;1.93;;;22.80;44.60;;;;;;6233834;23;20369;-73
2023/04/22 10:49:09;;;;;;;4.33;2.23;;;22.80;44.60;;;;;;6182294;23;20464;-74
2023/04/22 10:51:38;;;;;;;2.77;1.90;;;22.80;45.00;;;;;;6181914;23;20635;-76
2023/04/22 10:54:03;;;;;;;3.43;2.17;;;22.80;44.50;;;;;;6178163;23;20372;-74
2023/04/22 10:56:29;;;;;;;11.63;3.50;;;22.80;44.50;;;;;;6203542;23;20688;-73
2023/04/22 10:58:58;;;;;;;3.73;2.20;;;22.90;44.00;;;;;;6202884;23;20161;-74
2023/04/22 11:01:27;;;;;;;3.67;2.37;;;22.90;43.20;;;;;;6204811;23;20146;-75
2023/04/22 11:03:53;;;;;;;3.53;2.13;;;22.70;43.90;;;;;;6230703;23;20416;-74
2023/04/22 11:06:26;;;;;;;4.40;2.87;;;22.80;44.20;;;;;;6207643;23;20365;-76
2023/04/22 11:09:08;;;;;;;3.50;2.63;;;23.00;43.80;;;;;;6205393;23;20178;-76
2023/04/22 11:11:33;;;;;;;2.63;2.43;;;23.10;43.60;;;;;;6180628;23;20421;-76
2023/04/22 11:14:00;;;;;;;3.80;2.47;;;22.90;43.90;;;;;;6208483;23;20439;-75
2023/04/22 11:16:26;;;;;;;4.50;2.63;;;23.00;44.00;;;;;;6208136;23;20138;-77
2023/04/22 11:18:52;;;;;;;5.13;2.87;;;23.00;44.10;;;;;;6206303;23;20469;-76
2023/04/22 11:21:19;;;;;;;4.07;2.40;;;23.20;44.20;;;;;;6205505;23;20373;-76
2023/04/22 11:23:51;;;;;;;3.67;2.43;;;23.40;43.60;;;;;;6179633;23;20129;-75
2023/04/22 11:26:17;;;;;;;11.83;2.80;;;23.50;43.70;;;;;;6202193;23;20367;-76
2023/04/22 11:28:47;;;;;;;2.47;2.00;;;23.60;43.30;;;;;;6203764;23;20377;-75
2023/04/22 11:31:14;;;;;;;5.90;2.30;;;23.60;43.30;;;;;;6202589;23;20149;-76
2023/04/22 11:33:40;;;;;;;4.30;3.17;;;23.60;43.10;;;;;;6203882;23;20408;-74
2023/04/22 11:36:10;;;;;;;7.53;3.67;;;23.40;43.10;;;;;;6178757;23;20384;-74
2023/04/22 11:38:36;;;;;;;4.47;2.60;;;23.00;43.90;;;;;;6202809;23;20134;-75
2023/04/22 11:41:03;;;;;;;4.47;2.63;;;22.90;44.20;;;;;;6203441;23;20373;-75
2023/04/22 11:43:29;;;;;;;4.00;2.73;;;23.00;44.50;;;;;;6181681;23;20154;-74
2023/04/22 11:45:56;;;;;;;5.17;3.00;;;23.00;44.40;;;;;;6205881;23;20404;-76
2023/04/22 11:48:21;;;;;;;5.27;2.60;;;22.80;44.70;;;;;;6209546;23;20634;-74
2023/04/22 11:50:47;;;;;;;4.37;3.90;;;22.80;45.00;;;;;;6181598;23;20405;-77
2023/04/22 11:53:19;;;;;;;5.73;3.83;;;22.70;45.10;;;;;;6181210;23;20180;-76
2023/04/22 11:55:49;;;;;;;5.97;3.83;;;22.50;45.40;;;;;;6210072;23;20371;-75
2023/04/22 11:58:18;;;;;;;4.50;3.87;;;22.70;45.20;;;;;;6208291;23;20400;-75
2023/04/22 12:00:49;;;;;;;5.40;3.00;;;22.70;45.10;;;;;;6207081;23;20389;-75
2023/04/22 12:03:26;;;;;;;5.40;3.00;;;22.50;45.60;;;;;;6182783;23;20452;-77
2023/04/22 12:05:56;;;;;;;4.10;2.73;;;22.60;45.80;;;;;;6180949;23;20381;-77
2023/04/22 12:08:29;;;;;;;5.13;3.37;;;22.70;45.50;;;;;;6208955;23;20380;-75
2023/04/22 12:11:00;;;;;;;4.57;3.43;;;23.00;45.40;;;;;;6208640;23;20377;-77
2023/04/22 12:13:35;;;;;;;4.83;2.97;;;23.20;45.00;;;;;;6178962;23;20424;-75
2023/04/22 12:16:03;;;;;;;4.47;2.43;;;23.20;44.80;;;;;;6204482;23;20365;-76
2023/04/22 12:18:34;;;;;;;3.10;2.33;;;23.10;44.70;;;;;;6209214;23;20357;-76
2023/04/22 12:21:03;;;;;;;6.40;3.27;;;23.20;44.70;;;;;;6182111;23;20396;-74
2023/04/22 12:23:30;;;;;;;4.20;2.63;;;23.40;44.60;;;;;;6181524;23;20464;-76
2023/04/22 12:25:56;;;;;;;5.13;2.93;;;23.50;44.50;;;;;;6209781;23;20377;-77
2023/04/22 12:28:22;;;;;;;2.57;2.10;;;23.60;44.40;;;;;;6206886;23;20388;-76
2023/04/22 12:30:48;;;;;;;2.93;2.60;;;23.70;44.60;;;;;;6206096;23;20805;-77
2023/04/22 12:33:14;;;;;;;4.70;3.30;;;23.80;44.40;;;;;;6186276;23;20170;-76
2023/04/22 12:35:40;;;;;;;3.83;2.90;;;23.90;44.10;;;;;;6181128;23;20142;-78
2023/04/22 12:38:05;;;;;;;2.70;2.50;;;23.80;44.40;;;;;;6210014;23;20177;-77
2023/04/22 12:40:31;;;;;;;4.63;2.77;;;23.90;44.20;;;;;;6183781;23;20220;-76
2023/04/22 12:42:57;;;;;;;4.63;3.10;;;23.80;44.60;;;;;;6208277;23;20154;-77
2023/04/22 12:45:23;;;;;;;3.90;3.23;;;23.90;44.80;;;;;;6208719;23;20153;-77
2023/04/22 12:47:52;;;;;;;5.20;3.13;;;24.10;45.00;;;;;;6206423;23;20173;-76